Time;durP1;ratioP1;P1;durP2;ratioP2;P2;SDS_P1;SDS_P2;PMS_P1;PMS_P2;Temp;Humidity;BMP_temperature;BMP_pressure;BME280_temperature;BME280_humidity;BME280_pressure;Samples;Min_cycle;Max_cycle;Signal;HPM_P1;HPM_P2
2023/03/05 00:00:12;;;;;;;8.00;1.63;;;3.40;99.90;;;;;;5045113;28;20051;-61
2023/03/05 00:02:38;;;;;;;7.32;1.65;;;2.90;99.90;;;;;;5044631;28;20040;-64
2023/03/05 00:05:03;;;;;;;8.50;1.60;;;3.20;99.90;;;;;;5044852;28;20814;-60
2023/03/05 00:07:29;;;;;;;7.40;1.90;;;3.20;99.90;;;;;;5045455;28;20693;-64
2023/03/05 00:09:58;;;;;;;11.07;2.13;;;2.50;99.90;;;;;;5046136;28;20037;-65
2023/03/05 00:12:24;;;;;;;11.60;1.95;;;2.30;99.90;;;;;;5046145;28;20037;-66
2023/03/05 00:14:50;;;;;;;10.68;2.05;;;3.50;99.90;;;;;;5045764;28;20480;-59
2023/03/05 00:17:15;;;;;;;9.48;1.92;;;2.40;99.90;;;;;;5045212;28;20049;-65
2023/03/05 00:19:41;;;;;;;9.30;1.83;;;3.20;99.90;;;;;;5046967;28;20531;-64
2023/03/05 00:22:07;;;;;;;11.88;1.63;;;2.40;99.90;;;;;;5046364;28;20507;-62
2023/03/05 00:24:32;;;;;;;7.68;1.80;;;2.80;99.90;;;;;;5044663;28;20041;-65
2023/03/05 00:26:58;;;;;;;8.48;1.60;;;2.80;99.90;;;;;;5027275;28;20045;-62
2023/03/05 00:29:24;;;;;;;10.02;1.63;;;2.60;99.90;;;;;;5044966;28;20032;-62
2023/03/05 00:31:49;;;;;;;4.50;1.23;;;3.20;99.90;;;;;;5044839;28;20041;-64
2023/03/05 00:34:17;;;;;;;11.60;1.73;;;2.80;99.90;;;;;;5044021;28;20040;-65
2023/03/05 00:36:45;;;;;;;9.40;1.55;;;2.80;99.90;;;;;;5045466;28;20041;-62
2023/03/05 00:39:12;;;;;;;8.65;1.60;;;2.80;99.90;;;;;;5045821;28;20045;-63
2023/03/05 00:41:38;;;;;;;9.50;2.05;;;2.90;99.90;;;;;;5046164;28;20548;-61
2023/03/05 00:44:04;;;;;;;11.95;2.40;;;2.40;99.90;;;;;;5045255;28;20033;-64
2023/03/05 00:46:30;;;;;;;9.40;2.22;;;3.50;99.90;;;;;;5036404;28;20051;-63
2023/03/05 00:48:56;;;;;;;8.70;2.22;;;2.10;99.90;;;;;;5025207;28;20037;-61
2023/03/05 00:51:23;;;;;;;7.97;2.47;;;2.90;99.90;;;;;;5025443;28;20056;-63
2023/03/05 00:53:48;;;;;;;8.10;2.35;;;3.30;99.90;;;;;;5024214;28;20029;-64
2023/03/05 00:56:14;;;;;;;11.80;2.38;;;2.10;99.90;;;;;;5025327;28;20102;-64
2023/03/05 00:58:40;;;;;;;9.10;1.90;;;2.20;99.90;;;;;;5025878;28;20075;-62
2023/03/05 01:01:06;;;;;;;9.43;1.92;;;2.70;99.90;;;;;;5023952;28;20088;-65
2023/03/05 01:03:33;;;;;;;11.70;1.90;;;3.00;99.90;;;;;;5024500;28;20049;-62
2023/03/05 01:06:00;;;;;;;11.80;2.45;;;3.10;99.90;;;;;;5025685;28;20041;-65
2023/03/05 01:08:26;;;;;;;9.02;1.85;;;2.90;99.90;;;;;;5025618;28;20061;-64
2023/03/05 01:10:52;;;;;;;7.93;2.10;;;2.80;99.90;;;;;;5024365;28;20195;-62
2023/03/05 01:13:18;;;;;;;7.88;2.30;;;2.60;99.90;;;;;;5024948;28;20596;-62
2023/03/05 01:15:46;;;;;;;12.93;3.13;;;2.50;99.90;;;;;;5026172;28;20064;-65
2023/03/05 01:18:12;;;;;;;10.70;3.92;;;2.50;99.90;;;;;;5026123;28;20053;-61
2023/03/05 01:20:37;;;;;;;16.23;5.53;;;3.20;99.90;;;;;;5025243;28;20052;-64
2023/03/05 01:23:03;;;;;;;13.93;4.63;;;2.90;99.90;;;;;;5024643;28;20045;-62
2023/03/05 01:25:29;;;;;;;12.60;4.07;;;3.10;99.90;;;;;;5007016;28;20173;-63
2023/03/05 01:27:55;;;;;;;10.77;2.55;;;2.90;99.90;;;;;;5025376;28;20524;-63
2023/03/05 01:30:21;;;;;;;9.57;2.25;;;3.10;99.90;;;;;;5024272;28;20042;-65
2023/03/05 01:32:46;;;;;;;8.48;2.05;;;3.00;99.90;;;;;;5024546;28;20045;-66
2023/03/05 01:35:19;;;;;;;7.25;1.75;;;2.50;99.90;;;;;;5025117;28;20075;-63
2023/03/05 01:37:45;;;;;;;12.15;2.38;;;2.20;99.90;;;;;;5008014;28;20037;-63
2023/03/05 01:40:12;;;;;;;10.77;1.95;;;3.20;99.90;;;;;;5024489;28;20048;-64
2023/03/05 01:42:38;;;;;;;8.10;2.10;;;2.50;99.90;;;;;;5024242;28;20049;-64
2023/03/05 01:45:14;;;;;;;11.35;2.08;;;2.50;99.90;;;;;;5027613;28;20034;-65
2023/03/05 01:47:39;;;;;;;8.15;1.70;;;3.20;99.90;;;;;;5037063;28;20142;-65
2023/03/05 01:50:09;;;;;;;11.55;2.05;;;2.90;99.90;;;;;;5044363;28;20076;-64
2023/03/05 01:52:38;;;;;;;8.38;1.60;;;3.10;99.90;;;;;;5045063;28;20111;-65
2023/03/05 01:55:10;;;;;;;6.50;1.40;;;3.40;99.90;;;;;;5044365;28;20183;-65
2023/03/05 01:57:44;;;;;;;7.15;1.50;;;3.10;99.90;;;;;;5026900;28;20048;-64
2023/03/05 02:00:17;;;;;;;7.25;1.45;;;2.80;99.90;;;;;;5044559;28;20045;-66
2023/03/05 02:02:44;;;;;;;7.22;1.52;;;2.80;99.90;;;;;;5044745;28;20548;-65
2023/03/05 02:05:14;;;;;;;12.43;1.67;;;3.10;99.90;;;;;;5044296;28;20041;-63
2023/03/05 02:07:41;;;;;;;9.35;1.17;;;3.10;99.90;;;;;;5045024;28;20067;-65
2023/03/05 02:10:19;;;;;;;7.40;1.45;;;2.30;99.90;;;;;;5043848;28;20056;-65
2023/03/05 02:12:46;;;;;;;8.77;1.75;;;2.30;99.90;;;;;;5044257;28;20043;-60
2023/03/05 02:15:12;;;;;;;7.53;1.55;;;3.40;99.90;;;;;;5043883;28;20045;-62
2023/03/05 02:17:38;;;;;;;5.95;1.20;;;2.50;99.90;;;;;;5043955;28;20416;-65
2023/03/05 02:20:25;;;;;;;6.95;1.30;;;2.00;99.90;;;;;;5043909;28;20068;-64
2023/03/05 02:22:51;;;;;;;7.38;1.50;;;2.60;99.90;;;;;;5044096;28;20060;-65
2023/03/05 02:25:21;;;;;;;6.20;1.50;;;2.50;99.90;;;;;;5044158;28;20074;-66
2023/03/05 02:28:03;;;;;;;4.30;1.15;;;2.80;99.90;;;;;;5044219;28;20044;-63
2023/03/05 02:30:30;;;;;;;4.78;1.20;;;1.90;99.90;;;;;;5044017;28;20080;-63
2023/03/05 02:32:56;;;;;;;6.75;1.20;;;2.10;99.90;;;;;;5044036;28;20049;-61
2023/03/05 02:35:22;;;;;;;6.65;1.15;;;2.90;99.90;;;;;;5043913;28;20112;-65
2023/03/05 02:37:48;;;;;;;8.43;1.23;;;2.30;99.90;;;;;;5043796;28;20140;-62
2023/03/05 02:40:13;;;;;;;9.60;1.33;;;2.20;99.90;;;;;;5043273;28;20071;-64
2023/03/05 02:42:39;;;;;;;7.47;1.40;;;2.40;99.90;;;;;;5043473;28;20813;-65
2023/03/05 02:45:05;;;;;;;5.13;1.35;;;1.80;99.90;;;;;;5038250;28;20069;-61
2023/03/05 02:47:31;;;;;;;7.70;1.30;;;2.90;99.90;;;;;;5032081;28;20057;-60
2023/03/05 02:49:57;;;;;;;6.22;1.10;;;3.00;99.90;;;;;;5023778;28;20041;-64
2023/03/05 02:52:24;;;;;;;6.32;1.48;;;2.80;99.90;;;;;;5024290;28;20373;-64
2023/03/05 02:54:50;;;;;;;5.03;1.10;;;3.10;99.90;;;;;;5023938;28;20050;-63
2023/03/05 02:57:16;;;;;;;6.70;1.20;;;2.30;99.90;;;;;;5023935;28;20044;-62
2023/03/05 02:59:42;;;;;;;4.35;0.95;;;2.30;99.90;;;;;;5024099;28;20087;-61
2023/03/05 03:02:07;;;;;;;4.10;0.80;;;2.10;99.90;;;;;;5024116;28;20764;-65
2023/03/05 03:04:33;;;;;;;7.13;1.27;;;2.90;99.90;;;;;;5013447;28;20476;-61
2023/03/05 03:06:59;;;;;;;6.88;1.15;;;2.20;99.90;;;;;;5043962;28;20600;-60
2023/03/05 03:09:25;;;;;;;8.00;1.23;;;2.10;99.90;;;;;;5043324;28;20150;-64
2023/03/05 03:11:52;;;;;;;7.10;1.15;;;2.70;99.90;;;;;;5025746;28;20045;-64
2023/03/05 03:14:18;;;;;;;6.15;1.02;;;2.00;99.90;;;;;;5044044;28;20063;-64
2023/03/05 03:16:43;;;;;;;4.07;1.00;;;2.20;99.90;;;;;;5043146;28;20531;-61
2023/03/05 03:19:09;;;;;;;7.63;1.30;;;1.80;99.90;;;;;;5043984;28;20884;-65
2023/03/05 03:21:35;;;;;;;5.40;1.20;;;2.40;99.90;;;;;;5024856;28;20045;-63
2023/03/05 03:24:01;;;;;;;6.60;1.42;;;1.70;99.90;;;;;;5132162;22;20056;-65
2023/03/05 03:26:26;;;;;;;7.47;1.30;;;1.90;99.90;;;;;;5064073;28;20398;-60
2023/03/05 03:28:52;;;;;;;7.68;1.13;;;2.30;99.90;;;;;;5063795;28;20044;-64
2023/03/05 03:31:18;;;;;;;6.22;1.52;;;2.90;99.90;;;;;;5063469;28;20048;-61
2023/03/05 03:33:44;;;;;;;10.50;3.80;;;2.70;99.90;;;;;;5062484;28;20032;-64
2023/03/05 03:36:10;;;;;;;10.35;2.90;;;2.10;99.90;;;;;;5062440;28;20400;-64
2023/03/05 03:38:36;;;;;;;4.90;1.70;;;2.70;99.90;;;;;;5062781;28;20109;-65
2023/03/05 03:41:05;;;;;;;5.80;1.65;;;1.90;99.90;;;;;;5063196;28;20032;-64
2023/03/05 03:43:31;;;;;;;6.15;1.25;;;2.60;99.90;;;;;;5062830;28;20048;-65
2023/03/05 03:45:56;;;;;;;8.32;1.40;;;3.10;99.90;;;;;;5054129;28;20109;-63
2023/03/05 03:48:22;;;;;;;8.07;1.60;;;1.80;99.90;;;;;;5047538;28;20048;-64
2023/03/05 03:50:47;;;;;;;8.82;1.50;;;2.70;99.90;;;;;;5062665;28;20052;-61
2023/03/05 03:53:13;;;;;;;6.03;1.30;;;2.50;99.90;;;;;;5067115;28;20054;-61
2023/03/05 03:55:41;;;;;;;5.10;1.20;;;1.70;99.90;;;;;;5067235;28;20044;-64
2023/03/05 03:58:08;;;;;;;6.50;1.45;;;1.70;99.90;;;;;;5050053;28;20048;-64
2023/03/05 04:00:34;;;;;;;8.77;1.30;;;2.50;99.90;;;;;;5086344;28;20383;-64
2023/03/05 04:02:59;;;;;;;7.25;1.15;;;3.20;99.90;;;;;;5068767;28;20044;-63
2023/03/05 04:05:25;;;;;;;5.68;1.45;;;2.70;99.90;;;;;;5087031;28;20046;-61
2023/03/05 04:07:50;;;;;;;7.00;1.35;;;1.80;99.90;;;;;;5086374;28;20058;-62
2023/03/05 04:10:17;;;;;;;7.55;1.15;;;2.00;99.90;;;;;;5085637;28;20093;-64
2023/03/05 04:12:42;;;;;;;9.80;1.40;;;1.90;99.90;;;;;;5085997;28;20550;-63
2023/03/05 04:15:09;;;;;;;9.20;1.50;;;2.70;99.90;;;;;;5086266;28;20123;-65
2023/03/05 04:17:35;;;;;;;7.40;1.55;;;2.20;99.90;;;;;;5086209;28;20089;-65
2023/03/05 04:20:00;;;;;;;6.53;1.50;;;1.90;99.90;;;;;;5086635;28;20040;-64
2023/03/05 04:22:26;;;;;;;7.22;1.60;;;2.40;99.90;;;;;;5086657;28;20052;-64
2023/03/05 04:24:52;;;;;;;8.27;1.77;;;2.00;99.90;;;;;;5085876;28;20090;-59
2023/03/05 04:27:17;;;;;;;6.13;1.90;;;2.10;99.90;;;;;;5086595;28;20140;-60
2023/03/05 04:29:43;;;;;;;9.38;2.15;;;2.50;99.90;;;;;;5086090;28;20044;-62
2023/03/05 04:32:09;;;;;;;8.07;2.00;;;2.80;99.90;;;;;;5086380;28;20089;-65
2023/03/05 04:34:36;;;;;;;8.38;1.50;;;2.50;99.90;;;;;;5067578;28;20044;-64
2023/03/05 04:37:02;;;;;;;5.88;1.45;;;2.80;99.90;;;;;;5086047;28;20033;-65
2023/03/05 04:39:27;;;;;;;6.25;1.00;;;2.20;99.90;;;;;;5085820;28;20040;-64
2023/03/05 04:41:53;;;;;;;4.93;1.10;;;2.30;99.90;;;;;;5085883;28;20044;-65
2023/03/05 04:44:19;;;;;;;4.93;1.00;;;2.30;99.90;;;;;;5084482;28;20085;-65
2023/03/05 04:46:44;;;;;;;9.02;1.23;;;2.80;99.90;;;;;;5059028;28;20052;-63
2023/03/05 04:49:10;;;;;;;3.92;0.80;;;2.70;99.90;;;;;;5048093;28;20045;-64
2023/03/05 04:51:36;;;;;;;4.32;0.88;;;1.90;99.90;;;;;;5047716;28;20790;-62
2023/03/05 04:54:01;;;;;;;5.80;1.02;;;2.00;99.90;;;;;;5065249;28;20036;-62
2023/03/05 04:56:27;;;;;;;4.47;0.98;;;1.80;99.90;;;;;;5066315;28;20402;-62
2023/03/05 04:58:53;;;;;;;7.60;1.38;;;2.10;99.90;;;;;;5048502;28;20123;-65
2023/03/05 05:01:18;;;;;;;4.32;0.90;;;2.70;99.90;;;;;;5065246;28;20040;-64
2023/03/05 05:03:44;;;;;;;6.35;1.17;;;2.00;99.90;;;;;;5065415;28;20057;-64
2023/03/05 05:06:10;;;;;;;5.15;1.05;;;2.00;99.90;;;;;;5047563;28;20441;-65
2023/03/05 05:08:35;;;;;;;5.10;0.88;;;2.30;99.90;;;;;;5065021;28;20497;-63
2023/03/05 05:11:05;;;;;;;5.90;1.17;;;2.40;99.90;;;;;;5064593;28;20051;-65
2023/03/05 05:13:32;;;;;;;6.55;1.40;;;1.80;99.90;;;;;;5064825;28;20063;-64
2023/03/05 05:15:57;;;;;;;3.85;0.80;;;3.00;99.90;;;;;;5065570;28;20136;-65
2023/03/05 05:18:24;;;;;;;5.95;1.20;;;1.70;99.90;;;;;;5065248;28;20131;-64
2023/03/05 05:20:50;;;;;;;5.47;1.10;;;1.80;99.90;;;;;;5063681;28;20060;-65
2023/03/05 05:23:16;;;;;;;5.03;0.90;;;2.70;99.90;;;;;;5063754;28;20064;-63
2023/03/05 05:25:42;;;;;;;3.83;0.95;;;1.70;99.90;;;;;;5065212;28;20431;-65
2023/03/05 05:28:09;;;;;;;8.68;1.00;;;2.30;99.90;;;;;;5047385;28;20043;-60
2023/03/05 05:30:35;;;;;;;4.88;1.15;;;2.80;99.90;;;;;;5064588;28;20484;-63
2023/03/05 05:33:00;;;;;;;4.18;0.90;;;2.70;99.90;;;;;;5064457;28;20077;-61
2023/03/05 05:35:26;;;;;;;4.05;1.00;;;1.60;99.90;;;;;;5064957;28;20040;-65
2023/03/05 05:37:52;;;;;;;5.95;0.90;;;2.70;99.90;;;;;;5064715;28;20120;-63
2023/03/05 05:40:18;;;;;;;4.85;1.00;;;1.60;99.90;;;;;;5063137;28;20585;-65
2023/03/05 05:42:44;;;;;;;3.63;1.05;;;2.60;99.90;;;;;;5064702;28;20068;-64
2023/03/05 05:45:10;;;;;;;6.88;1.52;;;2.60;99.90;;;;;;5048814;28;20178;-63
2023/03/05 05:47:36;;;;;;;7.55;1.23;;;1.60;99.90;;;;;;5073528;28;20098;-65
2023/03/05 05:50:03;;;;;;;6.10;1.17;;;1.50;99.90;;;;;;5029037;28;20094;-61
2023/03/05 05:52:29;;;;;;;6.40;1.23;;;2.50;99.90;;;;;;5064821;28;20051;-65
2023/03/05 05:54:55;;;;;;;4.65;1.10;;;2.50;99.90;;;;;;5063902;28;20044;-63
2023/03/05 05:57:20;;;;;;;4.22;1.20;;;1.60;99.90;;;;;;5064765;28;20047;-64
2023/03/05 05:59:46;;;;;;;7.55;1.30;;;2.60;99.90;;;;;;5064129;28;20174;-61
2023/03/05 06:02:12;;;;;;;10.88;1.90;;;2.50;99.90;;;;;;5064252;28;20040;-64
2023/03/05 06:04:38;;;;;;;7.93;1.40;;;1.90;99.90;;;;;;5064578;28;20545;-64
2023/03/05 06:07:04;;;;;;;6.22;1.38;;;1.60;99.90;;;;;;5064251;28;20044;-64
2023/03/05 06:09:30;;;;;;;7.95;1.35;;;2.40;99.90;;;;;;5063439;28;20048;-60
2023/03/05 06:11:56;;;;;;;5.72;1.35;;;1.50;99.90;;;;;;5064281;28;20052;-65
2023/03/05 06:14:21;;;;;;;5.95;1.40;;;2.00;99.90;;;;;;5064341;28;20041;-65
2023/03/05 06:16:47;;;;;;;8.50;1.70;;;1.40;99.90;;;;;;5063527;28;20051;-65
2023/03/05 06:19:14;;;;;;;9.02;1.60;;;2.20;99.90;;;;;;5063684;28;20045;-63
2023/03/05 06:21:44;;;;;;;6.15;1.50;;;1.40;99.90;;;;;;5063930;28;20049;-63
2023/03/05 06:24:11;;;;;;;7.10;1.40;;;2.30;99.90;;;;;;5063113;28;20430;-66
2023/03/05 06:26:36;;;;;;;8.82;1.60;;;1.30;99.90;;;;;;5064094;28;20048;-64
2023/03/05 06:29:02;;;;;;;7.68;1.65;;;2.30;99.90;;;;;;5046267;28;20059;-64
2023/03/05 06:31:29;;;;;;;9.02;1.73;;;1.40;99.90;;;;;;5064295;28;20044;-61
2023/03/05 06:33:59;;;;;;;6.90;1.50;;;1.70;99.90;;;;;;5064509;28;20036;-64
2023/03/05 06:36:26;;;;;;;6.55;1.38;;;2.70;99.90;;;;;;5062701;28;20136;-65
2023/03/05 06:38:53;;;;;;;7.70;1.95;;;2.00;99.90;;;;;;5063246;28;20075;-63
2023/03/05 06:41:21;;;;;;;7.20;1.35;;;1.80;99.90;;;;;;5064693;28;20764;-64
2023/03/05 06:43:47;;;;;;;7.65;1.95;;;2.50;99.90;;;;;;5063737;28;20086;-62
2023/03/05 06:46:14;;;;;;;8.60;1.85;;;1.40;99.90;;;;;;5075434;28;20032;-64
2023/03/05 06:48:42;;;;;;;9.52;2.10;;;1.30;99.90;;;;;;5063612;28;20052;-62
2023/03/05 06:51:37;;;;;;;8.77;1.95;;;1.50;99.90;;;;;;5063879;28;20045;-64
2023/03/05 06:54:04;;;;;;;;;;;2.20;99.90;;;;;;5050301;28;20130;-65
2023/03/05 06:56:30;;;;;;;6.40;1.50;;;2.50;99.90;;;;;;5064384;28;19923;-65
2023/03/05 06:58:56;;;;;;;10.88;1.90;;;2.40;99.90;;;;;;5063675;28;20403;-65
2023/03/05 07:01:22;;;;;;;10.35;2.15;;;2.90;99.90;;;;;;5066382;28;20044;-63
2023/03/05 07:03:50;;;;;;;10.35;1.60;;;1.60;99.90;;;;;;5083245;28;20043;-64
2023/03/05 07:06:15;;;;;;;5.80;1.40;;;2.60;99.90;;;;;;5084579;28;20446;-61
2023/03/05 07:08:43;;;;;;;6.47;1.38;;;2.10;99.90;;;;;;5083266;28;20123;-62
2023/03/05 07:11:14;;;;;;;7.72;1.90;;;2.70;99.90;;;;;;5083940;28;20422;-64
2023/03/05 07:13:42;;;;;;;7.93;1.30;;;1.90;99.90;;;;;;5065459;28;20538;-64
2023/03/05 07:16:10;;;;;;;10.35;1.70;;;1.90;99.90;;;;;;5084350;28;20044;-64
2023/03/05 07:18:35;;;;;;;9.57;1.70;;;2.20;99.90;;;;;;5066448;28;20048;-64
2023/03/05 07:21:06;;;;;;;7.57;1.58;;;2.80;99.90;;;;;;5083987;28;20048;-60
2023/03/05 07:23:32;;;;;;;9.13;2.20;;;1.90;99.90;;;;;;5083375;28;20102;-62
2023/03/05 07:26:05;;;;;;;5.65;1.58;;;2.90;99.90;;;;;;5083882;28;20048;-65
2023/03/05 07:28:31;;;;;;;10.82;2.00;;;2.70;99.90;;;;;;5085878;28;20127;-64
2023/03/05 07:31:10;;;;;;;8.45;1.58;;;2.00;99.90;;;;;;5087307;28;20091;-59
2023/03/05 07:33:36;;;;;;;8.63;1.40;;;3.00;99.90;;;;;;5087980;28;20097;-60
2023/03/05 07:36:09;;;;;;;7.90;1.67;;;2.70;99.90;;;;;;5087752;28;20040;-65
2023/03/05 07:38:34;;;;;;;6.05;1.63;;;3.00;99.90;;;;;;5086889;28;20048;-65
2023/03/05 07:41:09;;;;;;;5.78;1.40;;;2.60;99.90;;;;;;5087647;28;20498;-61
2023/03/05 07:43:35;;;;;;;6.55;1.38;;;3.50;99.90;;;;;;5085324;28;20048;-63
2023/03/05 07:46:06;;;;;;;5.65;1.30;;;3.20;99.90;;;;;;5080572;28;20123;-61
2023/03/05 07:48:32;;;;;;;7.75;1.35;;;2.40;99.90;;;;;;5050288;28;20047;-64
2023/03/05 07:51:05;;;;;;;5.55;1.20;;;3.30;99.90;;;;;;5067012;28;20669;-66
2023/03/05 07:53:31;;;;;;;5.87;1.30;;;3.30;99.90;;;;;;5048642;28;20497;-66
2023/03/05 07:55:57;;;;;;;8.00;1.35;;;3.30;99.90;;;;;;5066600;28;20083;-63
2023/03/05 07:58:22;;;;;;;7.85;1.40;;;2.50;99.90;;;;;;5049576;28;20033;-63
2023/03/05 08:00:48;;;;;;;4.05;1.17;;;2.90;99.90;;;;;;5067094;28;20052;-63
2023/03/05 08:03:14;;;;;;;5.32;1.42;;;2.70;99.90;;;;;;5067248;28;20734;-64
2023/03/05 08:05:40;;;;;;;4.88;0.98;;;3.10;99.90;;;;;;5048951;28;20040;-63
2023/03/05 08:08:06;;;;;;;9.73;1.67;;;3.50;99.90;;;;;;5066914;28;20111;-65
2023/03/05 08:10:33;;;;;;;6.85;1.20;;;3.70;99.90;;;;;;5067489;28;20102;-65
2023/03/05 08:12:58;;;;;;;9.38;1.20;;;3.00;99.90;;;;;;5066511;28;20044;-65
2023/03/05 08:15:24;;;;;;;5.97;1.13;;;3.40;99.90;;;;;;5066192;28;20441;-65
2023/03/05 08:17:50;;;;;;;6.78;1.30;;;3.30;99.90;;;;;;5066799;28;20078;-66
2023/03/05 08:20:15;;;;;;;5.95;1.30;;;3.70;99.90;;;;;;5066662;28;20128;-63
2023/03/05 08:22:41;;;;;;;7.85;1.52;;;3.90;99.90;;;;;;5047620;28;20064;-64
2023/03/05 08:25:07;;;;;;;7.15;1.95;;;4.10;99.90;;;;;;5065687;28;20720;-65
2023/03/05 08:27:36;;;;;;;5.60;0.90;;;3.70;99.90;;;;;;5066278;28;20498;-63
2023/03/05 08:30:02;;;;;;;4.68;0.93;;;4.60;99.90;;;;;;5065923;28;20663;-65
2023/03/05 08:32:28;;;;;;;4.70;1.13;;;3.70;99.90;;;;;;5065454;28;20108;-60
2023/03/05 08:35:01;;;;;;;7.40;1.35;;;4.00;99.90;;;;;;5065180;28;20055;-64
2023/03/05 08:37:27;;;;;;;6.68;1.15;;;4.30;99.90;;;;;;5066059;28;20041;-62
2023/03/05 08:39:55;;;;;;;9.75;1.15;;;3.70;99.90;;;;;;5065461;28;20131;-64
2023/03/05 08:42:20;;;;;;;4.93;1.38;;;4.50;99.90;;;;;;5065625;28;20613;-66
2023/03/05 08:44:46;;;;;;;7.00;1.30;;;3.80;99.90;;;;;;5067697;28;20044;-63
2023/03/05 08:47:12;;;;;;;8.75;1.20;;;4.00;99.90;;;;;;5074107;28;20029;-63
2023/03/05 08:49:38;;;;;;;4.25;1.52;;;4.10;99.90;;;;;;5065897;28;20052;-62
2023/03/05 08:52:04;;;;;;;6.60;1.27;;;4.00;99.90;;;;;;5047658;28;20162;-62
2023/03/05 08:54:29;;;;;;;6.72;1.40;;;4.20;99.90;;;;;;5046320;28;20048;-64
2023/03/05 08:56:55;;;;;;;6.78;1.27;;;4.20;99.90;;;;;;5065105;28;20607;-61
2023/03/05 08:59:20;;;;;;;5.65;1.15;;;4.80;99.90;;;;;;5064977;28;20036;-64
2023/03/05 09:01:46;;;;;;;5.50;1.00;;;4.40;99.90;;;;;;5046945;28;20048;-62
2023/03/05 09:04:12;;;;;;;6.82;1.08;;;4.90;99.90;;;;;;5065003;28;20422;-59
2023/03/05 09:06:39;;;;;;;7.25;1.30;;;4.60;99.90;;;;;;5065232;28;20803;-64
2023/03/05 09:09:08;;;;;;;4.93;1.20;;;4.80;99.90;;;;;;5064829;28;20093;-64
2023/03/05 09:11:35;;;;;;;5.43;1.00;;;5.10;99.90;;;;;;5065382;28;20395;-62
2023/03/05 09:14:04;;;;;;;9.55;1.20;;;4.70;99.90;;;;;;5064227;28;20101;-63
2023/03/05 09:16:30;;;;;;;5.38;1.00;;;5.10;99.90;;;;;;5065476;28;20452;-62
2023/03/05 09:18:57;;;;;;;5.55;1.38;;;4.90;99.90;;;;;;5065254;28;20133;-64
2023/03/05 09:21:23;;;;;;;8.93;1.58;;;5.40;99.90;;;;;;5065004;28;20090;-63
2023/03/05 09:23:48;;;;;;;4.13;0.63;;;5.40;99.90;;;;;;5064171;28;20563;-62
2023/03/05 09:26:18;;;;;;;5.35;0.80;;;5.60;99.90;;;;;;5047365;28;20487;-61
2023/03/05 09:28:44;;;;;;;6.30;0.80;;;5.80;99.90;;;;;;5065298;28;20048;-60
2023/03/05 09:31:10;;;;;;;5.95;1.17;;;6.10;99.90;;;;;;5065436;28;20411;-64
2023/03/05 09:33:36;;;;;;;7.13;1.27;;;6.40;99.90;;;;;;5047047;28;20048;-65
2023/03/05 09:36:03;;;;;;;7.90;1.00;;;6.60;99.90;;;;;;5065131;28;20041;-61
2023/03/05 09:38:29;;;;;;;3.92;0.60;;;6.60;99.90;;;;;;5065139;28;20504;-65
2023/03/05 09:41:06;;;;;;;4.13;1.00;;;6.70;99.90;;;;;;5065699;28;20123;-60
2023/03/05 09:43:51;;;;;;;6.50;0.95;;;6.40;99.90;;;;;;5065745;28;20059;-65
2023/03/05 09:46:43;;;;;;;5.13;0.68;;;6.60;99.90;;;;;;5076772;28;20123;-57
2023/03/05 09:49:31;;;;;;;4.38;0.65;;;7.00;99.90;;;;;;5065412;28;20048;-65
2023/03/05 09:52:05;;;;;;;4.45;0.75;;;7.10;99.90;;;;;;5063296;28;20063;-67
2023/03/05 09:54:42;;;;;;;6.45;1.17;;;6.80;99.90;;;;;;5029236;28;20403;-64
2023/03/05 09:57:18;;;;;;;4.70;0.80;;;6.50;99.90;;;;;;5047311;28;20101;-66
2023/03/05 09:59:53;;;;;;;6.45;0.70;;;5.70;99.90;;;;;;5065304;28;20370;-59
2023/03/05 10:02:35;;;;;;;3.40;0.73;;;5.50;99.90;;;;;;5064877;28;20052;-66
2023/03/05 10:05:24;;;;;;;3.33;0.57;;;4.80;99.90;;;;;;5063463;28;20051;-66
2023/03/05 10:08:03;;;;;;;7.70;1.00;;;4.60;99.90;;;;;;5063548;28;20048;-63
2023/03/05 10:10:41;;;;;;;4.55;0.70;;;4.30;99.90;;;;;;5074019;28;20052;-59
2023/03/05 10:13:24;;;;;;;6.55;1.00;;;4.60;99.90;;;;;;5084154;28;20044;-65
2023/03/05 10:16:24;;;;;;;4.38;0.70;;;4.90;99.90;;;;;;5084139;28;20048;-66
2023/03/05 10:18:53;;;;;;;6.80;1.20;;;5.40;99.90;;;;;;5066129;28;20073;-62
2023/03/05 10:21:37;;;;;;;4.85;0.93;;;5.90;99.90;;;;;;5083367;28;20048;-65
2023/03/05 10:24:30;;;;;;;3.90;0.88;;;5.80;99.90;;;;;;5082908;28;20048;-66
2023/03/05 10:27:18;;;;;;;4.38;0.93;;;6.10;99.90;;;;;;5084156;28;20109;-65
2023/03/05 10:30:07;;;;;;;4.53;0.90;;;6.40;99.90;;;;;;5068713;28;20056;-64
2023/03/05 10:32:45;;;;;;;6.40;1.10;;;6.20;99.90;;;;;;5059278;28;20071;-66
2023/03/05 10:35:13;;;;;;;5.63;1.35;;;6.50;99.90;;;;;;5089198;28;20035;-67
2023/03/05 10:38:11;;;;;;;4.07;0.77;;;6.40;99.90;;;;;;5089997;28;20047;-67
2023/03/05 10:40:44;;;;;;;5.20;0.70;;;6.40;99.90;;;;;;5090807;28;22940;-64
2023/03/05 10:43:26;;;;;;;3.17;0.90;;;6.20;99.90;;;;;;5090823;28;20044;-66
2023/03/05 10:45:53;;;;;;;5.78;0.93;;;6.10;99.90;;;;;;5075860;28;20139;-64
2023/03/05 10:48:22;;;;;;;5.22;0.82;;;6.40;99.90;;;;;;5065587;28;20076;-66
2023/03/05 10:50:52;;;;;;;3.40;1.10;;;6.50;99.90;;;;;;5062513;28;20052;-60
2023/03/05 10:53:33;;;;;;;4.85;0.80;;;6.70;99.90;;;;;;5061675;28;20044;-61
2023/03/05 10:56:04;;;;;;;5.75;1.00;;;7.50;99.90;;;;;;5062319;28;20099;-65
2023/03/05 10:58:31;;;;;;;5.15;0.88;;;7.80;99.90;;;;;;5044228;28;20178;-65
2023/03/05 11:01:20;;;;;;;3.78;0.85;;;8.10;99.90;;;;;;5062266;28;20052;-60
2023/03/05 11:03:56;;;;;;;5.38;1.10;;;8.10;99.90;;;;;;5066985;28;20048;-65
2023/03/05 11:06:33;;;;;;;5.15;0.90;;;8.10;99.90;;;;;;5066843;28;20110;-66
2023/03/05 11:09:23;;;;;;;4.35;0.80;;;8.10;99.90;;;;;;5065511;28;20525;-63
2023/03/05 11:12:07;;;;;;;4.82;0.70;;;7.50;99.90;;;;;;5048388;28;20550;-63
2023/03/05 11:14:36;;;;;;;4.18;0.90;;;8.10;99.90;;;;;;5065628;28;20064;-67
2023/03/05 11:17:22;;;;;;;4.15;0.52;;;8.50;99.90;;;;;;5065585;28;20453;-68
2023/03/05 11:19:47;;;;;;;3.72;0.80;;;8.40;99.90;;;;;;5066462;28;20097;-68
2023/03/05 11:22:23;;;;;;;5.47;1.02;;;8.70;99.90;;;;;;5047215;28;20052;-64
2023/03/05 11:25:03;;;;;;;2.40;0.65;;;9.30;99.90;;;;;;5066953;28;20052;-63
2023/03/05 11:27:36;;;;;;;4.78;0.80;;;9.40;99.90;;;;;;5061883;28;20488;-64
2023/03/05 11:30:16;;;;;;;4.72;0.70;;;9.00;99.90;;;;;;5085471;28;20085;-67
2023/03/05 11:32:42;;;;;;;4.28;0.70;;;8.80;99.90;;;;;;5085423;28;20051;-68
2023/03/05 11:35:29;;;;;;;3.60;0.82;;;8.70;99.90;;;;;;5086286;28;20510;-66
2023/03/05 11:38:00;;;;;;;3.70;0.60;;;8.90;99.90;;;;;;5084682;28;20131;-65
2023/03/05 11:40:28;;;;;;;5.10;0.98;;;8.70;99.90;;;;;;5086628;28;20040;-62
2023/03/05 11:42:57;;;;;;;4.63;0.82;;;8.50;99.90;;;;;;5085409;28;20559;-62
2023/03/05 11:45:25;;;;;;;5.35;0.98;;;8.40;99.90;;;;;;5080709;28;20054;-66
2023/03/05 11:47:54;;;;;;;5.10;0.98;;;7.90;99.90;;;;;;5065357;28;20140;-63
2023/03/05 11:50:26;;;;;;;5.90;1.33;;;8.00;99.90;;;;;;5066042;28;20044;-62
2023/03/05 11:53:02;;;;;;;5.63;0.80;;;8.30;99.90;;;;;;5072445;28;20051;-63
2023/03/05 11:55:35;;;;;;;5.70;0.90;;;8.50;99.90;;;;;;5086612;28;20463;-65
2023/03/05 11:58:18;;;;;;;6.30;0.95;;;8.60;99.90;;;;;;5084446;28;20101;-66
2023/03/05 12:00:46;;;;;;;4.68;0.77;;;8.60;99.90;;;;;;5085329;28;20048;-63
2023/03/05 12:03:16;;;;;;;3.53;0.85;;;8.70;99.90;;;;;;5084734;28;20060;-65
2023/03/05 12:05:47;;;;;;;4.28;0.80;;;8.50;99.90;;;;;;5077932;28;20094;-64
2023/03/05 12:08:18;;;;;;;4.05;0.80;;;8.50;99.90;;;;;;5067928;28;20063;-68
2023/03/05 12:10:44;;;;;;;4.72;0.90;;;8.30;99.90;;;;;;5085879;28;20052;-64
2023/03/05 12:13:35;;;;;;;3.42;0.80;;;8.10;99.90;;;;;;5085567;28;20090;-62
2023/03/05 12:16:19;;;;;;;4.85;0.98;;;7.80;99.90;;;;;;5085089;28;20048;-67
2023/03/05 12:19:07;;;;;;;3.15;0.50;;;8.10;99.90;;;;;;5085199;28;20549;-67
2023/03/05 12:21:41;;;;;;;5.50;0.90;;;8.50;99.90;;;;;;5085984;28;20272;-67
2023/03/05 12:24:25;;;;;;;2.58;0.50;;;8.40;99.90;;;;;;5085067;28;20048;-64
2023/03/05 12:27:01;;;;;;;3.33;0.68;;;8.20;99.90;;;;;;5086680;28;20087;-64
2023/03/05 12:29:37;;;;;;;3.50;0.70;;;7.90;99.90;;;;;;5086053;28;20092;-67
2023/03/05 12:32:04;;;;;;;6.45;1.60;;;7.90;99.90;;;;;;5086401;28;20083;-67
2023/03/05 12:34:39;;;;;;;5.78;1.05;;;7.70;99.90;;;;;;5086443;28;20048;-66
2023/03/05 12:37:09;;;;;;;3.60;0.80;;;7.60;99.90;;;;;;5085533;28;20127;-66
2023/03/05 12:40:07;;;;;;;4.97;0.80;;;7.70;99.90;;;;;;5086336;28;20037;-68
2023/03/05 12:42:32;;;;;;;7.80;1.10;;;7.50;99.90;;;;;;5067679;28;20043;-68
2023/03/05 12:45:10;;;;;;;5.15;1.02;;;7.30;99.90;;;;;;5080836;28;20548;-64
2023/03/05 12:47:40;;;;;;;2.65;0.63;;;7.40;99.90;;;;;;5077049;28;20047;-64
2023/03/05 12:50:25;;;;;;;4.57;1.60;;;7.50;99.90;;;;;;5085845;28;20050;-63
2023/03/05 12:53:12;;;;;;;4.43;1.13;;;7.70;99.90;;;;;;5084809;28;20044;-66
2023/03/05 12:55:46;;;;;;;5.35;1.23;;;7.90;99.90;;;;;;5086140;28;20032;-70
2023/03/05 12:58:17;;;;;;;4.15;0.75;;;7.80;99.90;;;;;;5085683;28;20100;-67
2023/03/05 13:00:48;;;;;;;5.53;0.88;;;7.60;99.90;;;;;;5085965;28;20040;-63
2023/03/05 13:03:23;;;;;;;7.72;1.17;;;7.50;99.90;;;;;;5085332;28;20036;-65
2023/03/05 13:05:50;;;;;;;;;;;7.60;99.90;;;;;;5085961;28;20077;-63
2023/03/05 13:08:21;;;;;;;3.50;0.63;;;7.90;99.90;;;;;;5084539;28;19923;-65